N750C PHKO-PHLI
Flight info
| Callsign | N750C |
|---|---|
| Flight time | N/A |
| Altitude | 8000 |
| Route | KOA V7 LNY V16 NAPUA LIH |
| Aircraft | VELO/L-SDFGR/S |
Departure
| Time | 2026-04-29 20:03 |
|---|---|
| Airport | Ellison Onizuka Kona International Airport at Keāhole (PHKO) |
Arrival
| Time | N/A |
|---|---|
| Airport | Lihue Airport (PHLI) |
| Time | Latitude | Longitude | Altitude | Speed | Heading |
|---|---|---|---|---|---|
| 2026-04-29 19:52 | 19.72560 | -156.04334 | 39 ft | 0 kts | 185° |
| 2026-04-29 19:56 | 19.72533 | -156.04344 | 39 ft | 12 kts | 202° |
| 2026-04-29 19:57 | 19.72468 | -156.04395 | 39 ft | 10 kts | 259° |
| 2026-04-29 19:57 | 19.72505 | -156.04432 | 39 ft | 9 kts | 3° |
| 2026-04-29 19:57 | 19.72579 | -156.04427 | 39 ft | 11 kts | 5° |
| 2026-04-29 19:57 | 19.72650 | -156.04420 | 39 ft | 9 kts | 6° |
| 2026-04-29 19:58 | 19.72729 | -156.04413 | 39 ft | 16 kts | 5° |
| 2026-04-29 19:58 | 19.72853 | -156.04401 | 39 ft | 18 kts | 4° |
| 2026-04-29 19:58 | 19.72973 | -156.04393 | 39 ft | 16 kts | 5° |
| 2026-04-29 19:58 | 19.73081 | -156.04379 | 39 ft | 15 kts | 3° |
| 2026-04-29 19:59 | 19.73185 | -156.04372 | 39 ft | 16 kts | 5° |
| 2026-04-29 19:59 | 19.73302 | -156.04362 | 39 ft | 19 kts | 4° |
| 2026-04-29 19:59 | 19.73437 | -156.04350 | 39 ft | 23 kts | 7° |
| 2026-04-29 20:00 | 19.73484 | -156.04348 | 39 ft | 23 kts | 4° |
| 2026-04-29 20:00 | 19.73634 | -156.04332 | 39 ft | 21 kts | 5° |
| 2026-04-29 20:00 | 19.73774 | -156.04320 | 39 ft | 19 kts | 5° |
| 2026-04-29 20:00 | 19.73904 | -156.04307 | 39 ft | 18 kts | 5° |
| 2026-04-29 20:01 | 19.74027 | -156.04297 | 39 ft | 17 kts | 4° |
| 2026-04-29 20:01 | 19.74124 | -156.04317 | 39 ft | 12 kts | 292° |
| 2026-04-29 20:01 | 19.74131 | -156.04401 | 39 ft | 11 kts | 273° |
| 2026-04-29 20:01 | 19.74137 | -156.04481 | 39 ft | 10 kts | 275° |
| 2026-04-29 20:02 | 19.74099 | -156.04545 | 39 ft | 13 kts | 194° |
| 2026-04-29 20:02 | 19.73942 | -156.04563 | 39 ft | 55 kts | 183° |
| 2026-04-29 20:02 | 19.73342 | -156.04616 | 90 ft | 107 kts | 187° |
| 2026-04-29 20:02 | 19.72809 | -156.04656 | 249 ft | 123 kts | 187° |
| 2026-04-29 20:03 | 19.71566 | -156.04775 | 739 ft | 143 kts | 189° |
| 2026-04-29 20:03 | 19.71166 | -156.04878 | 955 ft | 142 kts | 200° |
| 2026-04-29 20:03 | 19.70336 | -156.05436 | 1367 ft | 143 kts | 229° |
| 2026-04-29 20:03 | 19.69893 | -156.06393 | 1685 ft | 149 kts | 261° |
| 2026-04-29 20:04 | 19.69995 | -156.07472 | 2143 ft | 144 kts | 292° |
| 2026-04-29 20:04 | 19.70631 | -156.08240 | 2640 ft | 140 kts | 333° |
| 2026-04-29 20:04 | 19.71576 | -156.08332 | 3118 ft | 141 kts | 16° |
| 2026-04-29 20:04 | 19.72367 | -156.07721 | 3600 ft | 143 kts | 44° |
| 2026-04-29 20:05 | 19.73294 | -156.07397 | 4064 ft | 147 kts | 353° |
| 2026-04-29 20:05 | 19.74164 | -156.07989 | 4366 ft | 166 kts | 308° |
| 2026-04-29 20:05 | 19.74486 | -156.09244 | 4281 ft | 193 kts | 266° |
| 2026-04-29 20:05 | 19.74139 | -156.10648 | 4282 ft | 200 kts | 261° |
| 2026-04-29 20:06 | 19.74224 | -156.12130 | 4277 ft | 204 kts | 288° |
| 2026-04-29 20:06 | 19.75042 | -156.13340 | 4288 ft | 205 kts | 324° |
| 2026-04-29 20:06 | 19.76283 | -156.14067 | 4399 ft | 203 kts | 335° |
| 2026-04-29 20:06 | 19.77565 | -156.14702 | 4502 ft | 204 kts | 336° |
| 2026-04-29 20:07 | 19.78829 | -156.15387 | 4598 ft | 204 kts | 333° |
| 2026-04-29 20:07 | 19.80063 | -156.16137 | 4693 ft | 205 kts | 331° |
| 2026-04-29 20:07 | 19.81300 | -156.16900 | 4778 ft | 205 kts | 332° |
| 2026-04-29 20:07 | 19.82543 | -156.17653 | 4859 ft | 206 kts | 332° |
| 2026-04-29 20:08 | 19.83128 | -156.18007 | 4911 ft | 206 kts | 332° |